createdAt,value
2018-12-07T00:00:15.849Z,14.60
2018-12-07T00:02:44.189Z,14.50
2018-12-07T00:05:12.427Z,14.60
2018-12-07T00:07:41.027Z,14.60
2018-12-07T00:10:09.299Z,14.60
2018-12-07T00:12:37.500Z,14.60
2018-12-07T00:15:07.509Z,14.50
2018-12-07T00:17:35.641Z,14.50
2018-12-07T00:20:05.346Z,14.60
2018-12-07T00:22:33.785Z,14.50
2018-12-07T00:25:01.965Z,14.50
2018-12-07T00:27:30.029Z,14.50
2018-12-07T00:29:58.113Z,14.50
2018-12-07T00:32:26.257Z,14.50
2018-12-07T00:34:54.329Z,14.50
2018-12-07T00:37:22.771Z,14.50
2018-12-07T00:39:50.851Z,14.50
2018-12-07T00:42:18.965Z,14.50
2018-12-07T00:44:48.401Z,14.60
2018-12-07T00:47:16.676Z,14.50
2018-12-07T00:49:44.791Z,14.60
2018-12-07T00:52:13.377Z,14.50
2018-12-07T00:54:41.535Z,14.50
2018-12-07T00:57:09.670Z,14.50
2018-12-07T00:59:37.757Z,14.50
2018-12-07T01:02:06.157Z,14.50
2018-12-07T01:04:34.288Z,14.60
2018-12-07T01:07:02.553Z,14.50
2018-12-07T01:09:30.709Z,14.50
2018-12-07T01:11:58.789Z,14.50
2018-12-07T01:14:26.869Z,14.50
2018-12-07T01:16:55.092Z,14.50
2018-12-07T01:19:23.263Z,14.50
2018-12-07T01:21:51.778Z,14.50
2018-12-07T01:24:20.058Z,14.50
2018-12-07T01:26:48.209Z,14.50
2018-12-07T01:29:16.358Z,14.50
2018-12-07T01:31:44.488Z,14.50
2018-12-07T01:34:12.561Z,14.50
2018-12-07T01:36:41.021Z,14.50
2018-12-07T01:39:09.257Z,14.50
2018-12-07T01:41:37.332Z,14.50
2018-12-07T01:44:05.704Z,14.50
2018-12-07T01:46:33.808Z,14.50
2018-12-07T01:49:01.853Z,14.50
2018-12-07T01:51:30.225Z,14.50
2018-12-07T01:53:58.301Z,14.50
2018-12-07T01:56:26.459Z,14.50
2018-12-07T01:58:54.997Z,14.50
2018-12-07T02:01:23.164Z,14.50
2018-12-07T02:03:51.574Z,14.50
2018-12-07T02:06:19.733Z,14.50
2018-12-07T02:08:47.965Z,14.50
2018-12-07T02:11:16.164Z,14.50
2018-12-07T02:13:44.659Z,14.50
2018-12-07T02:16:13.612Z,14.50
2018-12-07T02:18:41.673Z,14.50
2018-12-07T02:21:10.097Z,14.50
2018-12-07T02:23:38.151Z,14.50
2018-12-07T02:26:06.288Z,14.50
2018-12-07T02:28:34.449Z,14.50
2018-12-07T02:31:02.556Z,14.50
2018-12-07T02:33:30.781Z,14.50
2018-12-07T02:35:59.353Z,14.50
2018-12-07T02:38:27.417Z,14.50
2018-12-07T02:40:55.751Z,14.50
2018-12-07T02:43:23.948Z,14.50
2018-12-07T02:45:52.162Z,14.50
2018-12-07T02:48:20.377Z,14.50
2018-12-07T02:50:48.537Z,14.50
2018-12-07T02:53:16.691Z,14.50
2018-12-07T02:55:44.841Z,14.50
2018-12-07T02:58:13.336Z,14.50
2018-12-07T03:00:41.414Z,14.60
2018-12-07T03:03:09.622Z,14.50
2018-12-07T03:05:37.856Z,14.50
2018-12-07T03:08:06.056Z,14.50
2018-12-07T03:10:34.273Z,14.60
2018-12-07T03:13:02.686Z,14.50
2018-12-07T03:15:30.930Z,14.60
2018-12-07T03:17:59.034Z,14.60
2018-12-07T03:20:27.209Z,14.60
2018-12-07T03:22:55.347Z,14.60
2018-12-07T03:25:23.677Z,14.60
2018-12-07T03:27:51.880Z,14.60
2018-12-07T03:30:20.754Z,14.60
2018-12-07T03:32:48.825Z,14.60
2018-12-07T03:35:17.377Z,14.60
2018-12-07T03:37:45.580Z,14.60
2018-12-07T03:40:13.753Z,14.60
2018-12-07T03:42:41.915Z,14.60
2018-12-07T03:45:10.124Z,14.60
2018-12-07T03:47:38.197Z,14.60
2018-12-07T03:50:06.725Z,14.60
2018-12-07T03:52:34.876Z,14.60
2018-12-07T03:55:03.192Z,14.50
2018-12-07T03:57:31.478Z,14.50
2018-12-07T03:59:59.716Z,14.50
2018-12-07T04:02:28.605Z,14.50
2018-12-07T04:04:56.700Z,14.50
2018-12-07T04:07:24.862Z,14.50
2018-12-07T04:09:53.021Z,14.50
2018-12-07T04:12:21.130Z,14.50
2018-12-07T04:14:49.253Z,14.50
2018-12-07T04:17:17.365Z,14.50
2018-12-07T04:19:45.846Z,14.60
2018-12-07T04:22:13.942Z,14.60
2018-12-07T04:24:42.025Z,14.50
2018-12-07T04:27:10.111Z,14.50
2018-12-07T04:29:38.257Z,14.50
2018-12-07T04:32:06.540Z,14.60
2018-12-07T04:34:35.080Z,14.60
2018-12-07T04:37:03.243Z,14.60
2018-12-07T04:39:31.442Z,14.60
2018-12-07T04:41:59.909Z,14.60
2018-12-07T04:44:27.992Z,14.60
2018-12-07T04:46:56.200Z,14.60
2018-12-07T04:49:24.362Z,14.60
2018-12-07T04:51:52.430Z,14.60
2018-12-07T04:54:20.691Z,14.60
2018-12-07T04:56:49.171Z,14.60
2018-12-07T04:59:17.411Z,14.60
2018-12-07T05:01:45.573Z,14.60
2018-12-07T05:04:13.733Z,14.60
2018-12-07T05:06:41.894Z,14.60
2018-12-07T05:09:10.041Z,14.60
2018-12-07T05:11:38.420Z,14.60
2018-12-07T05:14:06.564Z,14.60
2018-12-07T05:16:34.713Z,14.60
2018-12-07T05:19:03.176Z,14.60
2018-12-07T05:21:31.397Z,14.60
2018-12-07T05:23:59.532Z,14.60
2018-12-07T05:26:27.749Z,14.60
2018-12-07T05:28:55.829Z,14.60
2018-12-07T05:31:24.109Z,14.60
2018-12-07T05:33:52.486Z,14.60
2018-12-07T05:36:20.753Z,14.60
2018-12-07T05:38:48.818Z,14.60
2018-12-07T05:41:16.895Z,14.60
2018-12-07T05:43:54.226Z,14.60
2018-12-07T05:46:22.830Z,14.60
2018-12-07T05:48:50.990Z,14.60
2018-12-07T05:51:19.209Z,14.60
2018-12-07T05:53:47.567Z,14.60
2018-12-07T05:56:15.726Z,14.60
2018-12-07T05:58:43.946Z,14.60
2018-12-07T06:01:12.409Z,14.60
2018-12-07T06:03:40.497Z,14.60
2018-12-07T06:06:08.737Z,14.60
2018-12-07T06:08:36.911Z,14.60
2018-12-07T06:11:05.109Z,14.60
2018-12-07T06:13:33.344Z,14.60
2018-12-07T06:16:01.772Z,14.60
2018-12-07T06:18:29.913Z,14.60
2018-12-07T06:20:58.073Z,14.60
2018-12-07T06:23:26.489Z,14.60
2018-12-07T06:25:54.645Z,14.50
2018-12-07T06:28:22.815Z,14.50
2018-12-07T06:30:51.317Z,14.50
2018-12-07T06:33:19.483Z,14.50
2018-12-07T06:35:47.653Z,14.50
2018-12-07T06:38:15.922Z,14.50
2018-12-07T06:40:44.134Z,14.50
2018-12-07T06:43:12.263Z,14.50
2018-12-07T06:45:40.418Z,14.50
2018-12-07T06:48:08.517Z,14.60
2018-12-07T06:50:36.956Z,14.50
2018-12-07T06:53:05.725Z,14.60
2018-12-07T06:55:33.869Z,14.50
2018-12-07T06:58:02.008Z,14.50
2018-12-07T07:00:30.475Z,14.50
2018-12-07T07:02:58.700Z,14.50
2018-12-07T07:05:26.777Z,14.50
2018-12-07T07:07:54.933Z,14.50
2018-12-07T07:10:23.137Z,14.50
2018-12-07T07:12:51.382Z,14.50
2018-12-07T07:15:19.669Z,14.50
2018-12-07T07:17:47.809Z,14.50
2018-12-07T07:20:15.902Z,14.50
2018-12-07T07:22:43.989Z,14.50
2018-12-07T07:25:12.354Z,14.50
2018-12-07T07:27:40.398Z,14.50
2018-12-07T07:30:09.953Z,14.50
2018-12-07T07:32:38.085Z,14.50
2018-12-07T07:35:06.737Z,14.50
2018-12-07T07:37:34.987Z,14.50
2018-12-07T07:40:03.515Z,14.40
2018-12-07T07:42:31.666Z,14.40
2018-12-07T07:44:59.842Z,14.40
2018-12-07T07:47:27.921Z,14.50
2018-12-07T07:49:56.070Z,14.40
2018-12-07T07:52:24.545Z,14.50
2018-12-07T07:54:53.492Z,14.50
2018-12-07T07:57:21.633Z,14.50
2018-12-07T07:59:49.719Z,14.40
2018-12-07T08:02:17.785Z,14.50
2018-12-07T08:04:45.937Z,14.50
2018-12-07T08:07:14.164Z,14.50
2018-12-07T08:09:42.257Z,14.40
2018-12-07T08:14:41.419Z,14.40
2018-12-07T08:17:09.496Z,14.40
2018-12-07T08:19:37.566Z,14.50
2018-12-07T08:22:05.725Z,14.50
2018-12-07T08:24:34.001Z,14.50
2018-12-07T08:27:02.249Z,14.50
2018-12-07T08:29:30.655Z,14.50
2018-12-07T08:31:58.817Z,14.50
2018-12-07T08:34:27.103Z,14.50
2018-12-07T08:36:55.335Z,14.50
2018-12-07T08:39:23.476Z,14.50
2018-12-07T08:41:51.677Z,14.50
2018-12-07T08:44:19.965Z,14.50
2018-12-07T08:46:48.101Z,14.50
2018-12-07T08:49:20.869Z,14.50
2018-12-07T08:51:49.088Z,14.50
2018-12-07T08:54:17.314Z,14.50
2018-12-07T08:56:45.467Z,14.50
2018-12-07T08:59:13.673Z,14.50
2018-12-07T09:01:42.102Z,14.50
2018-12-07T09:04:10.596Z,14.50
2018-12-07T09:06:38.757Z,14.50
2018-12-07T09:09:08.197Z,14.60
2018-12-07T09:11:36.701Z,14.50
2018-12-07T09:14:04.909Z,14.50
2018-12-07T09:16:32.990Z,14.50
2018-12-07T09:19:01.104Z,14.50
2018-12-07T09:21:29.570Z,14.50
2018-12-07T09:23:57.766Z,14.50
2018-12-07T09:26:26.021Z,14.60
2018-12-07T09:28:54.179Z,14.50
2018-12-07T09:31:22.381Z,14.60
2018-12-07T09:33:50.472Z,14.50
2018-12-07T09:36:18.637Z,14.50
2018-12-07T09:38:46.721Z,14.60
2018-12-07T09:41:15.165Z,14.60
2018-12-07T09:43:43.441Z,14.60
2018-12-07T09:46:11.673Z,14.60
2018-12-07T09:48:40.145Z,14.60
2018-12-07T09:51:08.241Z,14.60
2018-12-07T09:53:36.369Z,14.60
2018-12-07T09:56:04.557Z,14.60
2018-12-07T09:58:32.653Z,14.60
2018-12-07T10:01:00.793Z,14.60
2018-12-07T10:03:29.221Z,14.60
2018-12-07T10:05:57.293Z,14.60
2018-12-07T10:08:25.560Z,14.60
2018-12-07T10:10:54.065Z,14.60
2018-12-07T10:13:22.153Z,14.60
2018-12-07T10:15:50.303Z,14.60
2018-12-07T10:18:18.689Z,14.60
2018-12-07T10:20:46.913Z,14.60
2018-12-07T10:23:15.073Z,14.60
2018-12-07T10:25:43.325Z,14.60
2018-12-07T10:28:11.636Z,14.60
2018-12-07T10:30:39.764Z,14.60
2018-12-07T10:33:08.480Z,14.60
2018-12-07T10:35:36.649Z,14.60
2018-12-07T10:38:04.906Z,14.60
2018-12-07T10:40:33.113Z,14.60
2018-12-07T10:43:01.185Z,14.60
2018-12-07T10:45:29.417Z,14.60
2018-12-07T10:47:57.910Z,14.60
2018-12-07T10:50:25.981Z,14.60
2018-12-07T10:52:54.129Z,14.70
2018-12-07T10:55:22.389Z,14.70
2018-12-07T10:57:50.537Z,14.70
2018-12-07T11:00:24.253Z,14.70
2018-12-07T11:02:57.725Z,14.70
2018-12-07T11:05:31.366Z,14.70
2018-12-07T11:08:05.069Z,14.70
2018-12-07T11:10:38.714Z,14.70
2018-12-07T11:13:12.276Z,14.70
2018-12-07T11:15:45.725Z,14.70
2018-12-07T11:18:19.479Z,14.70
2018-12-07T11:20:53.164Z,14.70
2018-12-07T11:23:26.892Z,14.70
2018-12-07T11:26:00.509Z,14.70
2018-12-07T11:28:34.311Z,14.70
2018-12-07T11:31:07.881Z,14.70
2018-12-07T11:33:43.257Z,14.70
2018-12-07T11:36:11.521Z,14.70
2018-12-07T11:38:39.716Z,14.70
2018-12-07T11:41:07.889Z,14.70
2018-12-07T11:43:35.986Z,14.70
2018-12-07T11:46:04.232Z,14.70
2018-12-07T11:48:32.408Z,14.70
2018-12-07T11:51:00.501Z,14.70
2018-12-07T11:53:28.681Z,14.70
2018-12-07T11:55:56.746Z,14.70
2018-12-07T11:58:25.223Z,14.80
2018-12-07T12:00:53.300Z,14.80
2018-12-07T12:03:21.446Z,14.80
2018-12-07T12:05:51.342Z,14.70
2018-12-07T12:08:19.753Z,14.70
2018-12-07T12:10:47.925Z,14.70
2018-12-07T12:13:16.299Z,14.70
2018-12-07T12:15:44.471Z,14.70
2018-12-07T12:18:12.610Z,14.80
2018-12-07T12:20:40.693Z,14.80
2018-12-07T12:23:08.782Z,14.80
2018-12-07T12:25:36.940Z,14.70
2018-12-07T12:28:05.165Z,14.70
2018-12-07T12:30:33.253Z,14.70
2018-12-07T12:33:01.407Z,14.70
2018-12-07T12:35:29.854Z,14.70
2018-12-07T12:37:57.937Z,14.70
2018-12-07T12:40:26.010Z,14.70
2018-12-07T12:42:54.177Z,14.70
2018-12-07T12:45:22.393Z,14.70
2018-12-07T12:47:50.561Z,14.70
2018-12-07T12:50:24.257Z,14.70
2018-12-07T12:52:52.393Z,14.70
2018-12-07T12:55:20.729Z,14.70
2018-12-07T12:57:49.253Z,14.70
2018-12-07T13:00:17.323Z,14.70
2018-12-07T13:02:45.553Z,14.70
2018-12-07T13:05:13.697Z,14.70
2018-12-07T13:07:41.825Z,14.70
2018-12-07T13:10:09.966Z,14.70
2018-12-07T13:12:38.509Z,14.70
2018-12-07T13:15:07.136Z,14.70
2018-12-07T13:17:35.293Z,14.70
2018-12-07T13:20:03.685Z,14.70
2018-12-07T13:22:31.862Z,14.70
2018-12-07T13:24:59.932Z,14.70
2018-12-07T13:27:28.099Z,14.70
2018-12-07T13:29:57.556Z,14.70
2018-12-07T13:32:25.788Z,14.70
2018-12-07T13:34:54.009Z,14.70
2018-12-07T13:37:22.084Z,14.70
2018-12-07T13:39:50.168Z,14.70
2018-12-07T13:42:18.929Z,14.70
2018-12-07T13:44:47.120Z,14.70
2018-12-07T13:47:15.550Z,14.70
2018-12-07T13:49:43.878Z,14.70
2018-12-07T13:52:12.190Z,14.70
2018-12-07T13:54:40.381Z,14.70
2018-12-07T13:57:09.149Z,14.70
2018-12-07T13:59:37.389Z,14.70
2018-12-07T14:02:05.714Z,14.70
2018-12-07T14:04:34.529Z,14.70
2018-12-07T14:07:03.010Z,14.60
2018-12-07T14:09:31.348Z,14.70
2018-12-07T14:11:59.454Z,14.60
2018-12-07T14:14:27.941Z,14.60
2018-12-07T14:16:56.314Z,14.60
2018-12-07T14:19:24.580Z,14.60
2018-12-07T14:21:52.840Z,14.60
2018-12-07T14:24:21.082Z,14.60
2018-12-07T14:26:49.155Z,14.60
2018-12-07T14:29:17.614Z,14.50
2018-12-07T14:31:45.905Z,14.60
2018-12-07T14:34:14.536Z,14.50
2018-12-07T14:36:42.997Z,14.50
2018-12-07T14:39:11.241Z,14.50
2018-12-07T14:41:39.487Z,14.50
2018-12-07T14:44:07.689Z,14.50
2018-12-07T14:46:36.048Z,14.50
2018-12-07T14:49:04.465Z,14.50
2018-12-07T14:51:32.911Z,14.50
2018-12-07T14:54:01.140Z,14.50
2018-12-07T14:56:29.413Z,14.50
2018-12-07T14:58:57.702Z,14.40
2018-12-07T15:01:26.017Z,14.40
2018-12-07T15:03:55.041Z,14.40
2018-12-07T15:06:23.469Z,14.40
2018-12-07T15:08:51.878Z,14.40
2018-12-07T15:11:20.097Z,14.40
2018-12-07T15:13:48.426Z,14.40
2018-12-07T15:16:16.626Z,14.40
2018-12-07T15:18:45.528Z,14.30
2018-12-07T15:21:13.766Z,14.30
2018-12-07T15:23:43.349Z,14.30
2018-12-07T15:26:11.623Z,14.30
2018-12-07T15:28:39.851Z,14.20
2018-12-07T15:31:08.149Z,14.20
2018-12-07T15:33:36.332Z,14.20
2018-12-07T15:36:04.810Z,14.20
2018-12-07T15:38:33.124Z,14.20
2018-12-07T15:41:01.798Z,14.20
2018-12-07T15:43:30.008Z,14.20
2018-12-07T15:46:01.783Z,14.20
2018-12-07T15:48:29.954Z,14.20
2018-12-07T15:50:58.233Z,14.10
2018-12-07T15:53:26.806Z,14.10
2018-12-07T15:55:54.919Z,14.10
2018-12-07T15:58:23.139Z,14.10
2018-12-07T16:00:51.774Z,14.10
2018-12-07T16:03:20.004Z,14.00
2018-12-07T16:05:48.366Z,14.00
2018-12-07T16:08:24.746Z,13.90
2018-12-07T16:10:49.306Z,13.80
2018-12-07T16:13:17.362Z,13.70
2018-12-07T16:15:45.730Z,13.60
2018-12-07T16:18:13.949Z,13.50
2018-12-07T16:20:42.491Z,13.40
2018-12-07T16:23:10.917Z,13.30
2018-12-07T16:25:39.012Z,13.10
2018-12-07T16:28:07.874Z,13.00
2018-12-07T16:30:36.165Z,12.90
2018-12-07T16:33:04.611Z,12.80
2018-12-07T16:35:32.826Z,12.70
2018-12-07T16:38:01.259Z,12.60
2018-12-07T16:40:29.477Z,12.60
2018-12-07T16:42:57.902Z,12.50
2018-12-07T16:45:26.232Z,12.40
2018-12-07T16:47:54.463Z,12.40
2018-12-07T16:50:22.728Z,12.30
2018-12-07T16:52:50.945Z,12.30
2018-12-07T16:55:19.259Z,12.20
2018-12-07T16:57:50.762Z,12.20
2018-12-07T17:00:19.057Z,12.20
2018-12-07T17:02:47.534Z,12.10
2018-12-07T17:05:17.844Z,12.10
2018-12-07T17:07:46.403Z,12.10
2018-12-07T17:10:14.755Z,12.10
2018-12-07T17:12:42.881Z,12.00
2018-12-07T17:15:11.262Z,12.00
2018-12-07T17:17:39.672Z,11.90
2018-12-07T17:20:07.966Z,12.00
2018-12-07T17:22:36.326Z,11.90
2018-12-07T17:25:05.093Z,11.90
2018-12-07T17:27:35.057Z,11.90
2018-12-07T17:30:04.215Z,11.90
2018-12-07T17:32:32.412Z,11.80
2018-12-07T17:35:00.567Z,11.80
2018-12-07T17:37:28.760Z,11.80
2018-12-07T17:39:56.938Z,11.70
2018-12-07T17:42:29.454Z,11.70
2018-12-07T17:44:55.652Z,11.60
2018-12-07T17:47:24.220Z,11.60
2018-12-07T17:49:52.803Z,11.60
2018-12-07T17:52:21.134Z,11.50
2018-12-07T17:54:49.675Z,11.50
2018-12-07T17:57:17.993Z,11.40
2018-12-07T17:59:46.568Z,11.40
2018-12-07T18:02:14.979Z,11.40
2018-12-07T18:04:43.513Z,11.30
2018-12-07T18:07:11.770Z,11.30
2018-12-07T18:09:39.927Z,11.30
2018-12-07T18:12:08.202Z,11.20
2018-12-07T18:14:36.513Z,11.20
2018-12-07T18:17:04.839Z,11.20
2018-12-07T18:19:33.292Z,11.20
2018-12-07T18:22:01.476Z,11.10
2018-12-07T18:24:29.668Z,11.10
2018-12-07T18:26:57.955Z,11.10
2018-12-07T18:29:26.339Z,11.10
2018-12-07T18:31:54.777Z,11.00
2018-12-07T18:34:23.602Z,11.00
2018-12-07T18:36:51.796Z,11.00
2018-12-07T18:39:20.009Z,11.00
2018-12-07T18:41:48.267Z,11.00
2018-12-07T18:44:16.930Z,10.90
2018-12-07T18:46:45.269Z,10.90
2018-12-07T18:49:14.030Z,10.90
2018-12-07T18:51:42.419Z,10.90
2018-12-07T18:54:10.759Z,10.90
2018-12-07T18:56:39.160Z,10.90
2018-12-07T18:59:07.490Z,10.80
2018-12-07T19:01:35.964Z,10.80
2018-12-07T19:04:04.549Z,10.80
2018-12-07T19:06:32.987Z,10.80
2018-12-07T19:09:01.388Z,10.80
2018-12-07T19:11:29.868Z,10.80
2018-12-07T19:13:58.042Z,10.80
2018-12-07T19:16:26.505Z,10.70
2018-12-07T19:18:54.990Z,10.60
2018-12-07T19:21:23.305Z,10.70
2018-12-07T19:23:51.603Z,10.70
2018-12-07T19:26:21.402Z,10.70
2018-12-07T19:28:49.580Z,10.70
2018-12-07T19:31:17.677Z,10.60
2018-12-07T19:33:46.338Z,10.60
2018-12-07T19:36:14.589Z,10.60
2018-12-07T19:38:43.084Z,10.60
2018-12-07T19:41:11.426Z,10.50
2018-12-07T19:43:39.919Z,10.50
2018-12-07T19:46:08.371Z,10.50
2018-12-07T19:48:37.244Z,10.50
2018-12-07T19:51:06.609Z,10.40
2018-12-07T19:53:34.871Z,10.40
2018-12-07T19:56:03.469Z,10.40
2018-12-07T19:58:32.053Z,10.30
2018-12-07T20:01:00.352Z,10.30
2018-12-07T20:03:29.091Z,10.30
2018-12-07T20:05:57.633Z,10.20
2018-12-07T20:08:25.803Z,10.20
2018-12-07T20:10:54.321Z,10.30
2018-12-07T20:13:22.803Z,10.20
2018-12-07T20:15:51.022Z,10.20
2018-12-07T20:18:19.517Z,10.20
2018-12-07T20:20:47.624Z,10.20
2018-12-07T20:23:15.925Z,10.20
2018-12-07T20:25:44.260Z,10.20
2018-12-07T20:28:12.630Z,10.20
2018-12-07T20:30:41.017Z,10.20
2018-12-07T20:33:09.612Z,10.20
2018-12-07T20:35:38.131Z,10.20
2018-12-07T20:38:06.667Z,10.20
2018-12-07T20:40:35.651Z,10.20
2018-12-07T20:43:03.948Z,10.20
2018-12-07T20:45:32.137Z,10.20
2018-12-07T20:48:00.332Z,10.20
2018-12-07T20:50:28.728Z,10.20
2018-12-07T20:52:57.225Z,10.20
2018-12-07T20:55:25.673Z,10.10
2018-12-07T20:57:54.035Z,10.10
2018-12-07T21:00:22.646Z,10.10
2018-12-07T21:02:51.301Z,10.10
2018-12-07T21:07:38.477Z,10.00
2018-12-07T21:10:23.903Z,10.00
2018-12-07T21:13:34.652Z,10.00
2018-12-07T21:16:20.351Z,9.90
2018-12-07T21:18:48.514Z,9.90
2018-12-07T21:21:16.680Z,9.90
2018-12-07T21:23:44.785Z,9.90
2018-12-07T21:26:20.757Z,9.90
2018-12-07T21:28:43.130Z,9.90
2018-12-07T21:31:11.397Z,9.90
2018-12-07T21:33:58.197Z,9.90
2018-12-07T21:36:42.601Z,9.90
2018-12-07T21:39:16.651Z,9.90
2018-12-07T21:41:44.906Z,9.80
2018-12-07T21:44:13.043Z,9.80
2018-12-07T21:46:41.208Z,9.80
2018-12-07T21:49:10.169Z,9.80
2018-12-07T21:51:45.923Z,9.80
2018-12-07T21:54:14.197Z,9.80
2018-12-07T21:56:42.690Z,9.80
2018-12-07T21:59:27.917Z,9.80
2018-12-07T22:01:58.490Z,9.80
2018-12-07T22:04:26.896Z,9.80
2018-12-07T22:06:56.994Z,9.80
2018-12-07T22:09:25.549Z,9.80
2018-12-07T22:11:54.215Z,9.80
2018-12-07T22:14:22.835Z,9.80
2018-12-07T22:16:51.090Z,9.80
2018-12-07T22:19:19.451Z,9.80
2018-12-07T22:21:47.749Z,9.80
2018-12-07T22:24:16.110Z,9.80
2018-12-07T22:26:44.320Z,9.70
2018-12-07T22:29:12.417Z,9.70
2018-12-07T22:31:40.569Z,9.70
2018-12-07T22:34:09.013Z,9.70
2018-12-07T22:36:37.781Z,9.70
2018-12-07T22:39:07.905Z,9.70
2018-12-07T22:41:36.579Z,9.70
2018-12-07T22:44:04.985Z,9.80
2018-12-07T22:46:33.108Z,9.80
2018-12-07T22:49:01.582Z,9.70
2018-12-07T22:51:30.797Z,9.70
2018-12-07T22:53:59.164Z,9.70
2018-12-07T22:56:27.339Z,9.70
2018-12-07T22:58:55.520Z,9.70
2018-12-07T23:01:23.709Z,9.80
2018-12-07T23:03:51.849Z,9.80
2018-12-07T23:06:20.573Z,9.80
2018-12-07T23:08:48.702Z,9.80
2018-12-07T23:11:16.891Z,9.80
2018-12-07T23:13:45.301Z,9.70
2018-12-07T23:16:13.367Z,9.80
2018-12-07T23:18:41.425Z,9.80
2018-12-07T23:21:09.950Z,9.80
2018-12-07T23:23:38.076Z,9.80
2018-12-07T23:26:06.293Z,9.80
2018-12-07T23:28:34.399Z,9.80
2018-12-07T23:31:02.681Z,9.80
2018-12-07T23:33:30.817Z,9.80
2018-12-07T23:35:59.377Z,9.80
2018-12-07T23:38:27.450Z,9.80
2018-12-07T23:40:55.809Z,9.80
2018-12-07T23:43:24.373Z,9.80
2018-12-07T23:45:52.432Z,9.80
2018-12-07T23:48:20.525Z,9.80
2018-12-07T23:50:48.925Z,9.80
2018-12-07T23:53:17.092Z,9.80
2018-12-07T23:55:45.153Z,9.80
2018-12-07T23:58:13.297Z,9.80
